Du har inga inställningar för hoppväder.nu

Hoppväder.nu

Senast uppdaterat 23:43

UTC-tid

2019-10-20 kl. 21:43


Sol och måne

Solen går upp 7:57 och går ner 17:43 (beräknade cirkatider)
Nästa fullmåne blir om 23 dagar (2019-11-12)

METAR

ESNS (Skellefteå)
(23 minuter sedan)
ESNS 202120Z AUTO 35005KT 9999 SCT008/// BKN013/// BKN020/// M01/M04 Q1015=



ESNU (Umeå)
(23 minuter sedan)
ESNU 202120Z 34008KT 9999 SCT033 OVC140 M00/M02 Q1015=



ESPA (Luleå)
(23 minuter sedan)
ESPA 202120Z 33006KT 9999 SCT036 M05/M07 Q1016=









TAF

ESNS (Skellefteå)
(253 minuter sedan)
ESNS 201730Z 2018/2022 31005KT 9999 BKN012 PROB40 2018/2022 BKN009=



ESNU (Umeå)
(73 minuter sedan)
ESNU 202030Z 2021/2106 36007KT 9999 BKN035=



ESPA (Luleå)
(73 minuter sedan)
ESPA 202030Z 2021/2023 33005KT 9999 OVC030=





Kodnycklar till TAF och METAR






LHP

(Skellefteå är område A1b i Norra delen)





Spotting

Hur fungerar spotthjälpen och Vindkartan?

Markvind är ca 0 m/s.



Vindkartan

Senast uppdaterad 23:43




All data kommer från LFV.se